Douds, Iowa
Current Conditions -  °F | °C
As of 11:35 PM on Wednesday 26 Nov 2014 (Local Time) from KFFL Reporting Station
Haze Haze  
Wind Chill: 17°   Ceiling: 1200
Heat Index: 27°   Visibility: 3mi
Dew Point: 25°   Wind: 10mph
Humidity: 93%   Direction: 320°NW
Pressure: 30.31"   Gusts: NA
Location:  40.84°N, 92.09°W
Report Text: KFFL 270535Z AUTO 32009KT 3SM BR SCT009 BKN012 OVC019 M03/M04 A3031 RMK AO2
Loading
Personal Weather Stations






























Interactive Weather Map New forecast layout! Learn more

10-Day Weather Forecast

Advertisements
Track Severe Weather on mobile